• Join FlightAware (Why Join?)
  • Login
  • US Flag 
02:44AM EDT


 

Airport Tracker/Info


-or-


 

Live Flight TrackerFlight Track Log ✈ EJA929 ✈ 10-Jul-2013 ✈ KBZN - KHOU

Flight Track Log - Related Links

Times and Time Zones

All times are in EDT time to prevent confusion due to time zone crossing. See the EJA929 flight status page for this flight to view local times or setup timezone preferences in your user account.

Time Position Orientation Groundspeed Altitude Reporting Facility
EDT Latitude Longitude Course Direction KTS MPH feet Rate Location/Type
08:16PM 45.7594 -111.1275 148° Southeast 199 229 5,400  Level Salt Lake Center
08:17PM 45.7189 -111.0667 134° Southeast 212 244 8,500 3,480 Climbing Salt Lake Center
08:18PM 45.6694 -110.9936 134° Southeast 239 275 12,600 3,720 Climbing Salt Lake Center
08:19PM 45.6519 -110.8622 101° East 287 330 16,200 2,580 Climbing Salt Lake Center
08:20PM 45.6033 -110.7597 124° Southeast 333 383 17,900 1,560 Climbing Salt Lake Center
08:21PM 45.2448 -110.4287 148° Southeast  Level FlightAware Approximate
08:21PM 45.5208 -110.6831 147° Southeast 350 403 19,500  Level Salt Lake Center
08:22PM 45.4331 -110.6022 147° Southeast 372 428 21,100 1,560 Climbing Salt Lake Center
08:23PM 45.3353 -110.5117 147° Southeast 393 452 22,800 1,560 Climbing Salt Lake Center
08:24PM 45.2403 -110.4247 147° Southeast 406 467 24,400 1,500 Climbing Salt Lake Center
08:25PM 45.1422 -110.3358 147° Southeast 417 480 26,000 1,680 Climbing Salt Lake Center
08:26PM 45.0272 -110.2289 147° Southeast 423 487 27,900 1,620 Climbing Salt Lake Center
08:27PM 44.9297 -110.1364 146° Southeast 435 501 29,400 1,500 Climbing Salt Lake Center
08:28PM 44.8394 -110.0194 137° Southeast 454 522 31,000 1,620 Climbing Salt Lake Center
08:30PM 44.7306 -109.8797 138° Southeast 471 542 32,800 1,560 Climbing Salt Lake Center
08:31PM 44.6342 -109.7583 138° Southeast 479 551 34,300 1,620 Climbing Salt Lake Center
08:32PM 44.5253 -109.6153 137° Southeast 483 556 36,200 1,260 Climbing Salt Lake Center
08:33PM 44.4281 -109.4931 138° Southeast 487 560 37,000 360 Climbing Salt Lake Center
08:34PM 44.3058 -109.3406 138° Southeast 520 598 37,000  Level Salt Lake Center
08:35PM 44.1903 -109.1964 138° Southeast 552 635 37,000  Level Salt Lake Center
08:36PM 44.0722 -109.0492 138° Southeast 569 655 37,000  Level Salt Lake Center
08:37PM 43.9536 -108.9042 139° Southeast 572 658 37,000  Level Salt Lake Center
08:38PM 43.8350 -108.7583 138° Southeast 573 659 37,000  Level Salt Lake Center
08:39PM 43.7167 -108.6114 138° Southeast 574 661 37,000  Level Salt Lake Center
08:40PM 43.5736 -108.4372 139° Southeast 574 661 37,000  Level Salt Lake Center
08:41PM 43.4503 -108.3039 142° Southeast 569 655 37,000 360 Level Salt Lake Center
08:42PM 43.3069 -108.2347 161° South 548 631 37,800 960 Climbing Salt Lake Center
08:43PM 43.1644 -108.1733 163° South 541 623 39,000 1,140 Climbing Salt Lake Center
08:44PM 43.0256 -108.1133 162° South 529 609 40,200 960 Climbing Salt Lake Center
08:45PM 42.8658 -108.0456 163° South 524 603 41,000 360 Climbing Salt Lake Center
08:46PM 42.7300 -107.9886 163° South 528 608 41,000  Level Salt Lake Center
08:47PM 42.5722 -107.9214 163° South 529 609 41,000  Level Salt Lake Center
08:48PM 42.4403 -107.8664 163° South 521 600 41,000  Level Salt Lake Center
08:49PM 42.3111 -107.8119 163° South 511 588 41,000  Level Salt Lake Center
08:50PM 42.1583 -107.7478 163° South 510 587 41,000  Level Salt Lake Center
08:51PM 42.0733 -107.7119 163° South 506 582 41,000  Level Denver Center
08:52PM 41.9222 -107.6486 163° South 505 581 41,000  Level Denver Center
08:53PM 41.7939 -107.5956 163° South 502 578 41,000  Level Denver Center
08:54PM 41.6594 -107.4892 149° Southeast 505 581 41,000  Level Denver Center
08:55PM 41.5478 -107.3828 144° Southeast 511 588 41,000  Level Denver Center
08:56PM 41.4372 -107.2756 144° Southeast 513 590 41,000  Level Denver Center
08:57PM 41.3083 -107.1519 144° Southeast 513 590 41,000  Level Denver Center
08:58PM 41.1961 -107.0567 147° Southeast 503 579 41,000  Level Denver Center
08:59PM 41.0536 -106.9639 154° Southeast 507 583 41,000  Level Denver Center
09:00PM 40.9328 -106.8861 154° Southeast 505 581 41,000  Level Denver Center
09:01PM 40.7964 -106.7856 151° Southeast 503 579 41,000  Level Denver Center
09:02PM 40.6964 -106.6828 142° Southeast 511 588 41,000  Level Denver Center
09:03PM 40.5833 -106.5700 143° Southeast 509 586 41,000  Level Denver Center
09:04PM 40.4536 -106.4400 143° Southeast 504 580 41,000  Level Denver Center
09:05PM 40.3464 -106.3342 143° Southeast 502 578 41,000  Level Denver Center
09:06PM 40.2217 -106.2100 143° Southeast 503 579 41,000  Level Denver Center
09:07PM 40.1142 -106.1031 143° Southeast 495 570 41,000  Level Denver Center
09:08PM 40.0017 -105.9933 143° Southeast 503 579 41,000  Level Denver Center
09:09PM 39.8900 -105.8839 143° Southeast 504 580 41,000  Level Denver Center
09:10PM 39.7772 -105.7750 143° Southeast 509 586 41,000  Level Denver Center
09:11PM 39.6658 -105.6683 144° Southeast 502 578 41,000  Level Denver Center
09:12PM 39.5542 -105.5614 144° Southeast 502 578 41,000  Level Denver Center
09:13PM 39.4194 -105.4322 143° Southeast 503 579 41,000  Level Denver Center
09:14PM 39.3061 -105.3247 144° Southeast 507 583 41,000  Level Denver Center
09:16PM 39.1936 -105.2189 144° Southeast 507 583 41,000  Level Denver Center
09:17PM 39.0814 -105.1097 143° Southeast 508 585 41,100 720 Climbing Denver Center
09:18PM 38.9694 -105.0039 144° Southeast 504 580 42,500 900 Climbing Denver Center
09:19PM 38.8583 -104.8986 144° Southeast 499 574 43,000 240 Climbing Denver Center
09:20PM 38.7233 -104.7708 144° Southeast 505 581 43,000  Level Denver Center
09:21PM 38.6086 -104.6661 144° Southeast 507 583 43,000  Level Denver Center
09:22PM 38.4961 -104.5606 144° Southeast 503 579 43,000  Level Denver Center
09:23PM 38.3836 -104.4556 144° Southeast 502 578 43,000  Level Denver Center
09:24PM 38.2733 -104.3553 144° Southeast 495 570 43,000  Level Denver Center
09:25PM 38.1464 -104.2394 144° Southeast 500 575 43,000 180 Level Denver Center
09:26PM 38.0378 -104.1406 144° Southeast 500 575 43,400 600 Climbing Denver Center
09:27PM 37.9111 -104.0242 144° Southeast 501 577 44,300 840 Climbing Denver Center
09:28PM 37.8031 -103.9261 144° Southeast 495 570 45,200 780 Climbing Denver Center
09:29PM 37.7144 -103.8447 144° Southeast 489 563 46,000 840 Climbing Denver Center
09:30PM 37.5733 -103.7175 144° Southeast 480 552 47,000 480 Climbing Denver Center
09:31PM 37.4686 -103.6244 145° Southeast 478 550 47,000  Level Denver Center
09:32PM 37.3628 -103.5308 145° Southeast 483 556 47,000  Level Denver Center
09:33PM 37.2742 -103.4522 145° Southeast 486 559 47,000  Level Albuquerque Center
09:34PM 37.1497 -103.3428 145° Southeast 488 562 47,000  Level Albuquerque Center
09:35PM 37.0428 -103.2461 144° Southeast 492 566 47,000  Level Albuquerque Center
09:36PM 36.9336 -103.1522 145° Southeast 496 571 47,100  Climbing Albuquerque Center
09:37PM 36.8108 -103.0450 145° Southeast 484 557 47,000 -60 Descending Albuquerque Center
09:38PM 36.7042 -102.9522 145° Southeast 486 559 47,000  Level Albuquerque Center
09:39PM 36.5989 -102.8594 145° Southeast 485 558 47,000  Level Albuquerque Center
09:40PM 36.4656 -102.7433 145° Southeast 487 560 47,000  Level Albuquerque Center
09:41PM 36.3556 -102.6489 145° Southeast 483 556 47,000  Level Albuquerque Center
09:42PM 36.2447 -102.5533 145° Southeast 485 558 47,000  Level Albuquerque Center
09:43PM 36.1339 -102.4583 145° Southeast 484 557 47,000  Level Albuquerque Center
09:44PM 36.0239 -102.3633 145° Southeast 483 556 47,000 180 Level Albuquerque Center
09:45PM 35.9136 -102.2700 146° Southeast 483 556 47,400 540 Climbing Albuquerque Center
09:46PM 35.8056 -102.1789 146° Southeast 474 545 48,100 600 Climbing Albuquerque Center
09:47PM 35.7014 -102.0892 145° Southeast 463 533 48,700 480 Climbing Albuquerque Center
09:48PM 35.5975 -102.0014 146° Southeast 457 526 49,200 540 Climbing Albuquerque Center
09:49PM 35.4797 -101.9017 145° Southeast 449 517 49,900 540 Climbing Albuquerque Center
09:50PM 35.3783 -101.8178 146° Southeast 441 507 50,400 420 Climbing Albuquerque Center
09:51PM 35.2800 -101.7342 145° Southeast 432 497 50,800 240 Climbing Albuquerque Center
09:52PM 35.1975 -101.6386 137° Southeast 424 488 51,000 60 Climbing Albuquerque Center
09:53PM 35.1269 -101.5303 129° Southeast 409 471 51,000  Level Albuquerque Center
09:54PM 35.0564 -101.4203 128° Southeast 409 471 51,000  Level Albuquerque Center
09:55PM 34.9739 -101.2944 129° Southeast 414 476 51,000 -300 Level Albuquerque Center
09:56PM 34.9025 -101.1853 129° Southeast 413 475 50,400 -900 Descending Albuquerque Center
09:57PM 34.8272 -101.0697 128° Southeast 427 491 49,200 -720 Descending Albuquerque Center
09:58PM 34.7475 -100.9478 128° Southeast 453 521 49,000 -120 Descending Albuquerque Center
09:59PM 34.6675 -100.8261 129° Southeast 459 528 49,000  Level Albuquerque Center
10:00PM 34.5869 -100.7042 129° Southeast 463 533 49,000  Level Albuquerque Center
10:01PM 34.5058 -100.5825 129° Southeast 463 533 49,000 -300 Level Albuquerque Center
10:02PM 34.4253 -100.4597 128° Southeast 465 535 48,500 -660 Descending Albuquerque Center
10:03PM 34.3419 -100.3364 129° Southeast 471 542 47,700 -840 Descending Albuquerque Center
10:04PM 34.2403 -100.1844 129° Southeast 481 554 46,800 -840 Descending Albuquerque Center
10:05PM 34.1644 -100.0703 129° Southeast 492 566 46,100 -780 Descending Albuquerque Center
10:06PM 34.0783 -99.9422 129° Southeast 493 567 45,300 -540 Descending Albuquerque Center
10:07PM 33.9931 -99.8172 129° Southeast 486 559 45,000 -180 Descending Albuquerque Center
10:08PM 33.8933 -99.6711 129° Southeast 474 545 45,000  Level Albuquerque Center
10:10PM 33.7944 -99.5231 129° Southeast 469 540 45,000  Level Fort Worth Center
10:11PM 33.7128 -99.4061 130° Southeast 464 534 45,000  Level Fort Worth Center
10:12PM 33.6333 -99.2869 129° Southeast 464 534 45,000  Level Fort Worth Center
10:13PM 33.5558 -99.1733 129° Southeast 459 528 45,000  Level Fort Worth Center
10:14PM 33.4739 -99.0594 131° Southeast 459 528 45,000  Level Fort Worth Center
10:15PM 33.3939 -98.9411 129° Southeast 459 528 45,000  Level Fort Worth Center
10:16PM 33.3158 -98.8303 130° Southeast 449 517 45,000  Level Fort Worth Center
10:17PM 33.2358 -98.7150 130° Southeast 449 517 45,000  Level Fort Worth Center
10:18PM 33.1533 -98.5969 130° Southeast 454 522 45,000  Level Fort Worth Center
10:19PM 33.0731 -98.4844 130° Southeast 454 522 45,000  Level Fort Worth Center
10:20PM 32.9861 -98.3769 134° Southeast 449 517 45,000  Level Fort Worth Center
10:21PM 32.8950 -98.2669 135° Southeast 449 517 45,000  Level Fort Worth Center
10:22PM 32.8061 -98.1575 134° Southeast 460 529 45,000  Level Fort Worth Center
10:23PM 32.7147 -98.0456 134° Southeast 465 535 45,000  Level Fort Worth Center
10:24PM 32.6214 -97.9339 135° Southeast 465 535 45,000  Level Fort Worth Center
10:25PM 32.5319 -97.8250 134° Southeast 459 528 45,000  Level Fort Worth Center
10:26PM 32.4281 -97.7014 135° Southeast 465 535 45,000  Level Fort Worth Center
10:27PM 32.3383 -97.5928 134° Southeast 465 535 45,000  Level Fort Worth Center
10:28PM 32.2467 -97.4797 134° Southeast 460 529 45,000  Level Fort Worth Center
10:29PM 32.1550 -97.3692 134° Southeast 460 529 45,000  Level Fort Worth Center
10:30PM 32.0628 -97.2614 135° Southeast 460 529 45,000  Level Fort Worth Center
10:31PM 31.9708 -97.1539 135° Southeast 460 529 45,000  Level Fort Worth Center
10:32PM 31.8933 -97.0536 132° Southeast 460 529 45,000  Level Fort Worth Center
10:33PM 31.7992 -96.9442 135° Southeast 460 529 45,000  Level Fort Worth Center
10:34PM 31.6986 -96.8469 141° Southeast 466 536 45,000  Level Fort Worth Center
10:35PM 31.5208 -96.8064 169° South 491 565 45,000 -540 Level Houston Center
10:36PM 31.3867 -96.7856 172° South 483 556 43,800 -2,340 Descending Houston Center
10:37PM 31.2450 -96.7625 172° South 500 575 40,300 -3,540 Descending Houston Center
10:38PM 31.0961 -96.7386 172° South 526 605 36,600 -3,720 Descending Houston Center
10:39PM 30.9569 -96.6778 159° South 531 611 32,700 -3,780 Descending Houston Center
10:40PM 30.8294 -96.5986 152° Southeast 515 593 29,000 -3,600 Descending Houston Center
10:41PM 30.7053 -96.5200 151° Southeast 501 577 25,400 -3,360 Descending Houston Center
10:42PM 30.5867 -96.4450 151° Southeast 484 557 22,200 -3,420 Descending Houston Center
10:43PM 30.4736 -96.3736 151° Southeast 463 533 18,500 -3,420 Descending Houston Center
10:44PM 30.3658 -96.3053 151° Southeast 442 509 15,300 -3,240 Descending Houston Center
10:45PM 30.2944 -96.2633 153° Southeast 421 484 13,300 -2,700 Descending Houston Center
10:46PM 30.1950 -96.2022 152° Southeast 402 463 11,000 -1,080 Descending Houston Center
10:47PM 30.0872 -96.1442 155° Southeast 391 450 11,000 -120 Level Houston Center
10:48PM 29.9897 -96.0853 152° Southeast 369 425 10,800 -600 Descending Houston Center
10:49PM 29.9411 -96.0089 126° Southeast 285 328 9,900 -1,380 Descending Houston Center
10:50PM 29.9136 -95.9325 113° Southeast 282 325 8,200 -1,860 Descending Houston Center
10:51PM 29.8825 -95.8422 112° Southeast 272 313 6,200 -1,740 Descending Houston Center
10:52PM 29.8547 -95.7636 112° Southeast 261 300 4,500 -1,140 Descending Houston Center
10:53PM 29.8314 -95.6917 110° East 257 296 4,100 -780 Descending Houston Center
10:54PM 29.8067 -95.6247 113° Southeast 258 297 3,100 -1,380 Descending Houston Center
10:54PM 29.7925 -95.5803 110° East 257 296 2,100 -720 Descending Houston Center
10:55PM 29.7658 -95.5042 112° Southeast 257 296 2,000 -60 Descending Houston Center
10:56PM 29.7542 -95.4264 100° East 263 303 2,000  Level Houston Center
10:58PM 29.7233 -95.3714 123° Southeast 228 262 2,000 -420 Level Houston Center
10:59PM 29.6942 -95.3375 135° Southeast 178 205 1,200 -720 Descending Houston Center
11:00PM 29.6728 -95.3111 133° Southeast 138 159 600 -600 Descending Houston Center
11:03PM 29.6454 -95.2789 116° Southeast  Level Estimated